РПИ Якутск

Сквоки, район применения ICAO EUR-I:

Чульман 3240-3257

Мирный 0510-0527

Олекминск 0501-0504

Якутск 0505-0507, 3220-3237 

Лого Якутск
Руководитель РПИ

Sergey Balandin*

Инструкторы РПИ
Ivan Aksenenko (Instructor)
Sergey Balandin (Senior Instructor)
Входит в состав
ЗЦ Хабаровск

Диспетчеры РПИ

Диспетчер Рейтинг Допуски *
Sergey Balandin Senior Instructor UEEE_CTR

Аэропорты РПИ

ICAO Город Название Погода
UERL Ленск Ленск
UERR Мирный Мирный UERR 161900Z 05001MPS CAVOK M39/M41 Q1029 R25/490237 NOSIG RMK QFE740/0987
UELL Нерюнгри Чульман
UEST Тикси Тикси
UERP Удачный Полярный UERP 161900Z 18003MPS 7000 -SN OVC100 M28/M30 Q1020 R35/490238 RMK QFE721
UESS Черский Черский
UEEE Якутск Якутск UEEE 161930Z 00000MPS 5000 BR NSC M40/M44 Q1038 R23L/490150 NOSIG RMK QFE770
UEMU Усть-Мая Усть-Мая